Briefing drone pour Neuville-aux-bois

Rechercher une autre localisation

Conditions de vol :


Nous sommes le : Lundi 27 septembre 2021
Il est 00:29 UTC (02:29 LT)

Lever de soleil : 05:19 UTC (07:19 LT)
Coucher de soleil : 18:06 UTC (20:06 LT)

Météo

L'essentiel des conditions de vol

VIGILANCE MÉTÉO FRANCE - Loiret (45)
Vigilance Jaune : Orages
CARTE TEMSI
CARTES DES FRONTS
METAR de LFOJ
LFOJ 270000Z AUTO 21010KT 9999 FEW008 16/15 Q1016

Date d'émission: 27/09/2021
Heure d'émission: 00:00 UTC
Vent: 210° pour 10 KT (19 km/h)
Visibilité horizontale: > 10 km
Plafond :
- Peu de nuages à 800ft (244m)
Température: 16 °C
Point de rosée: 15 °C
Humidité: 94%
Pression (QNH): 1016 hPa
TAF de LFOJ
LFOJ 261400Z 2615/2715 CNL

Conditions prévues :

Heure d'émission : Bulletin éffectué le 26 à 15:00 UTC
Prévision : Valide du 26 a 15:00 UTC au 27 a 15:00 UTC
Nuages : à 0ft (0 m)
WEBCAM POUR NEUVILLE-AUX-BOIS

Réglementation

Voler en sécurité

CARTES AERONAUTIQUE 1/500.000
CARTES VAC (LFOJ)
SUP AIP




Chargement des AIP...
NOTAM (NEUVILLE-AUX-BOIS + Terrain à proximité / FIR )




Chargement des NOTAMS...
CONTACT PREFECTURE 45


Avertissement : Les données mises à disposition sont indicatives. Oxygène Drone ne pourra être tenu responsable de dégâts causés aux biens et aux personnes.